Time;durP1;ratioP1;P1;durP2;ratioP2;P2;SDS_P1;SDS_P2;PMS_P1;PMS_P2;Temp;Humidity;BMP_temperature;BMP_pressure;BME280_temperature;BME280_humidity;BME280_pressure;Samples;Min_cycle;Max_cycle;Signal;HPM_P1;HPM_P2
2021/12/11 00:02:44;;;;;;;75.30;27.08;;;;;;;3.62;100.00;99125.63;6298123;28;20421;-73
2021/12/11 00:05:48;;;;;;;;;;;;;;;3.72;100.00;99131.16;6282282;28;20429;-73
2021/12/11 00:08:53;;;;;;;69.63;24.98;;;;;;;3.70;100.00;99127.00;6299434;28;19970;-74
2021/12/11 00:12:03;;;;;;;70.78;26.27;;;;;;;3.58;100.00;99126.69;6299455;28;20032;-73
2021/12/11 00:15:11;;;;;;;78.85;27.67;;;;;;;3.61;100.00;99134.28;6299419;28;20048;-73
2021/12/11 00:18:17;;;;;;;81.63;28.60;;;;;;;3.62;100.00;99119.63;6298027;28;20124;-73
2021/12/11 00:21:19;;;;;;;79.97;27.73;;;;;;;3.53;100.00;99133.78;6310094;28;20055;-73
2021/12/11 00:24:26;;;;;;;77.63;27.37;;;;;;;3.63;100.00;99144.53;6322418;28;20089;-73
2021/12/11 00:27:28;;;;;;;74.78;26.55;;;;;;;3.67;100.00;99148.63;6323570;28;20273;-74
2021/12/11 00:30:33;;;;;;;82.95;28.88;;;;;;;3.52;100.00;99157.06;6323826;28;20104;-74
2021/12/11 00:33:34;;;;;;;79.50;28.15;;;;;;;3.52;100.00;99154.50;6322902;28;20146;-73
2021/12/11 00:36:34;;;;;;;84.97;28.20;;;;;;;3.54;100.00;99153.53;6289341;28;20044;-73
2021/12/11 00:39:52;;;;;;;84.82;27.05;;;;;;;3.53;100.00;99156.19;6322530;28;20082;-72
2021/12/11 00:43:03;;;;;;;83.55;28.58;;;;;;;3.59;100.00;99164.47;6323812;28;20040;-73
2021/12/11 00:46:07;;;;;;;78.30;27.67;;;;;;;3.54;100.00;99166.44;6323585;28;20040;-73
2021/12/11 00:49:16;;;;;;;80.88;27.92;;;;;;;3.65;100.00;99165.94;6323642;28;20047;-73
2021/12/11 00:52:17;;;;;;;90.90;27.80;;;;;;;3.61;100.00;99161.81;6322465;28;20044;-74
2021/12/11 00:55:38;;;;;;;88.40;28.77;;;;;;;3.62;100.00;99177.22;6272260;28;20056;-73
2021/12/11 00:58:41;;;;;;;76.50;26.80;;;;;;;3.70;100.00;99179.44;6323251;28;20059;-73
2021/12/11 01:01:54;;;;;;;75.80;27.85;;;;;;;3.70;100.00;99179.44;6322136;28;20063;-73
2021/12/11 01:04:55;;;;;;;82.15;27.55;;;;;;;3.76;100.00;99176.56;6321855;28;20044;-73
2021/12/11 01:07:56;;;;;;;76.78;26.42;;;;;;;3.82;100.00;99183.19;6323151;28;20051;-73
2021/12/11 01:11:03;;;;;;;79.15;27.42;;;;;;;3.82;100.00;99178.84;6321777;28;20040;-73
2021/12/11 01:14:22;;;;;;;78.10;26.60;;;;;;;3.85;100.00;99183.06;6321233;28;20052;-73
2021/12/11 01:17:36;;;;;;;81.05;28.13;;;;;;;3.91;100.00;99193.09;6322906;28;20511;-73
2021/12/11 01:21:11;;;;;;;78.93;27.58;;;;;;;3.96;100.00;99196.28;6322349;28;20373;-73
2021/12/11 01:24:29;;;;;;;92.13;29.17;;;;;;;3.97;100.00;99191.94;6322844;28;20399;-73
2021/12/11 01:27:30;;;;;;;73.75;27.33;;;;;;;4.04;100.00;99201.91;6307492;28;20370;-73
2021/12/11 01:30:38;;;;;;;80.27;28.40;;;;;;;4.02;100.00;99190.81;6297281;28;20060;-73
2021/12/11 01:33:40;;;;;;;70.35;25.85;;;;;;;4.03;100.00;99196.81;6297319;28;20626;-73
2021/12/11 01:36:42;;;;;;;76.60;26.20;;;;;;;3.90;100.00;99193.16;6297024;28;20048;-73
2021/12/11 01:39:43;;;;;;;76.85;26.48;;;;;;;3.93;100.00;99193.00;6279033;28;20044;-73
2021/12/11 01:42:45;;;;;;;89.47;30.93;;;;;;;3.97;100.00;99197.09;6295834;28;20429;-73
2021/12/11 01:45:49;;;;;;;68.55;28.40;;;;;;;3.94;100.00;99189.53;6297143;28;20043;-74
2021/12/11 01:49:00;;;;;;;72.28;27.58;;;;;;;3.82;100.00;99191.75;6297214;28;20102;-72
2021/12/11 01:52:28;;;;;;;68.18;25.98;;;;;;;3.79;100.00;99188.50;6297188;28;20045;-73
2021/12/11 01:55:41;;;;;;;65.78;25.75;;;;;;;3.73;100.00;99187.03;6297185;28;20129;-73
2021/12/11 01:58:46;;;;;;;66.43;25.20;;;;;;;3.78;100.00;99182.50;6297029;28;20044;-73
2021/12/11 02:02:03;;;;;;;66.50;24.20;;;;;;;3.82;100.00;99190.94;6295990;28;20047;-73
2021/12/11 02:05:07;;;;;;;63.42;25.90;;;;;;;3.87;100.00;99191.56;6296936;28;20468;-74
2021/12/11 02:08:14;;;;;;;63.00;23.85;;;;;;;3.92;100.00;99193.94;6296837;28;20044;-73
2021/12/11 02:11:22;;;;;;;61.83;24.58;;;;;;;3.91;100.00;99194.81;6296869;28;20087;-73
2021/12/11 02:14:27;;;;;;;58.47;23.48;;;;;;;3.94;100.00;99186.94;6297034;28;20485;-73
2021/12/11 02:17:40;;;;;;;63.67;23.13;;;;;;;3.96;100.00;99182.53;6295746;28;20053;-73
2021/12/11 02:20:44;;;;;;;57.47;24.33;;;;;;;3.95;100.00;99186.03;6295749;28;20036;-73
2021/12/11 02:23:52;;;;;;;57.50;22.98;;;;;;;3.98;100.00;99188.47;6296746;28;20052;-74
2021/12/11 02:26:55;;;;;;;52.70;22.63;;;;;;;4.00;100.00;99186.66;6300651;28;20052;-74
2021/12/11 02:30:07;;;;;;;58.88;23.20;;;;;;;4.02;100.00;99193.41;6300302;28;20053;-73
2021/12/11 02:33:36;;;;;;;58.78;24.92;;;;;;;3.99;100.00;99195.28;6301793;28;20154;-74
2021/12/11 02:36:59;;;;;;;56.97;23.25;;;;;;;4.00;100.00;99181.50;6293401;28;20048;-73
2021/12/11 02:40:10;;;;;;;56.45;23.48;;;;;;;4.01;100.00;99183.97;6301465;28;20039;-74
2021/12/11 02:43:44;;;;;;;70.55;26.42;;;;;;;3.93;100.00;99174.94;6301309;28;20070;-73
2021/12/11 02:47:25;;;;;;;65.70;26.17;;;;;;;3.95;100.00;99186.84;6297784;28;20053;-73
2021/12/11 02:50:37;;;;;;;74.55;26.17;;;;;;;4.01;100.00;99196.06;6277859;28;20065;-74
2021/12/11 02:53:47;;;;;;;58.25;23.00;;;;;;;3.77;100.00;99170.50;6301419;28;20044;-73
2021/12/11 02:56:54;;;;;;;55.50;22.88;;;;;;;3.67;100.00;99164.09;6301429;28;20049;-73
2021/12/11 02:59:55;;;;;;;55.92;21.35;;;;;;;3.85;100.00;99170.16;6301156;28;20037;-73
2021/12/11 03:03:05;;;;;;;60.97;22.10;;;;;;;3.90;100.00;99173.34;6299638;28;20036;-73
2021/12/11 03:06:16;;;;;;;53.65;20.10;;;;;;;3.84;100.00;99179.63;6300793;28;20043;-73
2021/12/11 03:09:22;;;;;;;52.13;20.60;;;;;;;3.89;100.00;99178.56;6299663;28;20066;-73
2021/12/11 03:12:24;;;;;;;55.05;21.88;;;;;;;3.85;100.00;99177.91;6300724;28;20041;-73
2021/12/11 03:15:25;;;;;;;54.53;21.33;;;;;;;3.89;100.00;99186.31;6299408;28;20488;-73
2021/12/11 03:18:27;;;;;;;49.92;20.05;;;;;;;3.86;100.00;99189.06;6299605;28;20501;-73
2021/12/11 03:21:28;;;;;;;53.70;21.83;;;;;;;3.78;100.00;99177.34;6300555;28;20400;-73
2021/12/11 03:24:33;;;;;;;45.53;19.90;;;;;;;3.90;100.00;99191.41;6300318;28;20045;-73
2021/12/11 03:27:34;;;;;;;55.33;21.33;;;;;;;3.97;100.00;99195.34;6299050;28;20080;-73
2021/12/11 03:30:39;;;;;;;54.70;21.80;;;;;;;4.01;100.00;99196.88;6298932;28;20048;-73
2021/12/11 03:33:44;;;;;;;58.50;21.88;;;;;;;4.00;100.00;99194.41;6300333;28;20040;-73
2021/12/11 03:36:46;;;;;;;48.35;19.77;;;;;;;3.97;100.00;99203.09;6299818;28;20055;-73
2021/12/11 03:39:51;;;;;;;52.90;21.65;;;;;;;3.94;100.00;99195.50;6300420;28;20128;-73
2021/12/11 03:42:58;;;;;;;54.45;22.10;;;;;;;3.98;100.00;99185.88;6299955;28;20555;-72
2021/12/11 03:46:03;;;;;;;55.72;21.42;;;;;;;3.92;100.00;99179.25;6298628;28;20056;-72
2021/12/11 03:49:09;;;;;;;59.75;22.90;;;;;;;3.82;100.00;99175.44;6299825;28;20076;-73
2021/12/11 03:52:12;;;;;;;47.03;19.33;;;;;;;3.88;100.00;99166.59;6300032;28;20472;-73
2021/12/11 03:55:15;;;;;;;;;;;;;;;3.74;100.00;99164.66;6299233;28;20412;-73
2021/12/11 03:58:17;;;;;;;44.03;19.27;;;;;;;3.78;100.00;99185.06;6299820;28;19951;-73
2021/12/11 04:01:27;;;;;;;46.58;19.70;;;;;;;3.81;100.00;99176.38;6299551;28;20045;-74
2021/12/11 04:04:33;;;;;;;49.72;19.48;;;;;;;3.68;100.00;99160.59;6298259;28;20043;-73
2021/12/11 04:07:41;;;;;;;43.17;18.70;;;;;;;3.74;100.00;99162.06;6298880;28;20051;-73
2021/12/11 04:10:46;;;;;;;46.47;19.25;;;;;;;3.73;100.00;99171.56;6298468;28;20048;-74
2021/12/11 04:13:51;;;;;;;47.38;20.02;;;;;;;3.61;100.00;99167.81;6298067;28;20040;-73
2021/12/11 04:16:52;;;;;;;49.92;20.35;;;;;;;3.67;100.00;99160.69;6299335;28;20048;-73
2021/12/11 04:19:57;;;;;;;50.03;20.58;;;;;;;3.81;100.00;99151.41;6331827;28;20049;-74
2021/12/11 04:22:57;;;;;;;46.50;19.88;;;;;;;3.77;100.00;99154.19;6305047;28;20044;-72
2021/12/11 04:25:59;;;;;;;45.50;20.35;;;;;;;3.67;100.00;99160.69;6297601;28;20067;-73
2021/12/11 04:28:59;;;;;;;44.67;19.38;;;;;;;3.77;100.00;99188.56;6302920;28;20052;-74
2021/12/11 04:32:03;;;;;;;50.92;19.70;;;;;;;3.79;100.00;99179.03;6323868;28;20101;-73
2021/12/11 04:35:08;;;;;;;46.58;19.25;;;;;;;3.76;100.00;99173.16;6324005;28;20039;-73
2021/12/11 04:38:12;;;;;;;48.10;19.48;;;;;;;3.85;100.00;99175.31;6323790;28;20097;-74
2021/12/11 04:41:18;;;;;;;45.63;17.95;;;;;;;3.91;100.00;99179.31;6323706;28;20040;-73
2021/12/11 04:44:27;;;;;;;42.00;18.25;;;;;;;3.96;100.00;99185.94;6323722;28;20123;-73
2021/12/11 04:47:39;;;;;;;48.25;19.30;;;;;;;4.03;100.00;99200.22;6321615;28;20109;-73
2021/12/11 04:50:55;;;;;;;;;;;;;;;3.96;100.00;99200.63;6305909;28;20052;-74
2021/12/11 05:04:19;;;;;;;50.47;18.15;;;;;;;3.82;100.00;99209.00;6298182;28;20037;-73
2021/12/11 05:10:42;;;;;;;50.42;17.05;;;;;;;3.92;100.00;99206.81;6321947;28;20040;-74
2021/12/11 05:13:44;;;;;;;50.67;18.42;;;;;;;3.80;100.00;99196.16;6305351;28;20138;-73
2021/12/11 05:16:45;;;;;;;54.90;18.58;;;;;;;3.87;100.00;99191.56;6322823;28;20064;-73
2021/12/11 05:19:47;;;;;;;49.90;17.25;;;;;;;3.95;100.00;99192.00;6321506;28;20040;-73
2021/12/11 05:22:48;;;;;;;59.75;19.35;;;;;;;4.02;100.00;99200.31;6321598;28;20446;-73
2021/12/11 05:25:49;;;;;;;65.05;18.45;;;;;;;3.96;100.00;99201.44;6315596;28;20049;-73
2021/12/11 05:28:50;;;;;;;51.85;17.98;;;;;;;4.02;100.00;99201.16;6296400;28;20049;-73
2021/12/11 05:31:51;;;;;;;70.70;20.00;;;;;;;3.95;100.00;99211.84;6287640;28;20489;-74
2021/12/11 05:34:52;;;;;;;50.45;19.27;;;;;;;3.99;100.00;99223.69;6316725;28;20058;-73
2021/12/11 05:37:54;;;;;;;63.28;20.40;;;;;;;3.99;100.00;99224.50;6322698;28;20040;-73
2021/12/11 05:40:59;;;;;;;53.15;18.98;;;;;;;4.03;100.00;99222.63;6321331;28;20093;-73
2021/12/11 05:44:01;;;;;;;55.58;18.15;;;;;;;4.04;100.00;99226.91;6321184;28;20048;-73
2021/12/11 05:47:04;;;;;;;57.47;19.48;;;;;;;4.03;100.00;99225.22;6304432;28;20537;-73
2021/12/11 05:50:10;;;;;;;60.72;17.70;;;;;;;4.10;100.00;99226.63;6321057;28;20055;-74
2021/12/11 05:53:12;;;;;;;53.95;19.77;;;;;;;3.92;100.00;99217.16;6321988;28;20142;-73
2021/12/11 05:56:14;;;;;;;52.83;19.88;;;;;;;3.76;100.00;99219.59;6297234;28;20048;-73
2021/12/11 05:59:17;;;;;;;71.35;23.27;;;;;;;3.92;100.00;99228.31;6304792;28;20042;-73
2021/12/11 06:02:25;;;;;;;61.67;20.02;;;;;;;3.99;100.00;99236.59;6308647;28;20056;-73
2021/12/11 06:05:27;;;;;;;38.10;16.55;;;;;;;3.88;100.00;99229.34;6309526;28;20396;-73
2021/12/11 06:08:27;;;;;;;49.25;16.33;;;;;;;3.94;100.00;99226.50;6296979;28;20048;-73
2021/12/11 06:11:28;;;;;;;48.70;17.15;;;;;;;3.91;100.00;99229.22;6296979;28;20045;-73
2021/12/11 06:14:30;;;;;;;47.22;17.83;;;;;;;3.88;100.00;99231.09;6279127;28;20049;-73
2021/12/11 06:17:33;;;;;;;62.67;20.50;;;;;;;3.89;100.00;99238.78;6311061;28;20048;-74
2021/12/11 06:20:34;;;;;;;60.55;19.60;;;;;;;3.83;100.00;99249.41;6304434;28;20040;-73
2021/12/11 06:23:35;;;;;;;45.22;17.35;;;;;;;3.95;100.00;99266.03;6278848;28;20048;-73
2021/12/11 06:26:36;;;;;;;44.55;16.60;;;;;;;4.02;100.00;99273.44;6309099;28;20044;-73
2021/12/11 06:29:37;;;;;;;49.40;18.42;;;;;;;3.95;100.00;99281.53;6277842;28;20075;-74
2021/12/11 06:32:40;;;;;;;48.47;17.75;;;;;;;4.06;100.00;99293.94;6278978;28;20496;-73
2021/12/11 06:35:55;;;;;;;41.78;18.65;;;;;;;4.06;100.00;99305.13;6295345;28;20049;-73
2021/12/11 06:39:02;;;;;;;42.10;17.15;;;;;;;4.04;100.00;99312.91;6318770;28;20093;-73
2021/12/11 06:42:06;;;;;;;35.05;15.30;;;;;;;4.13;100.00;99324.56;6304873;28;20455;-73
2021/12/11 06:45:07;;;;;;;33.42;15.25;;;;;;;4.25;100.00;99343.81;6320445;28;20036;-73
2021/12/11 06:48:09;;;;;;;34.25;15.43;;;;;;;4.28;100.00;99351.41;6292258;28;20052;-73
2021/12/11 06:51:11;;;;;;;38.33;15.98;;;;;;;4.30;100.00;99359.09;6292535;28;20052;-73
2021/12/11 06:54:12;;;;;;;38.20;16.33;;;;;;;4.35;100.00;99370.06;6275771;28;20508;-73
2021/12/11 06:57:13;;;;;;;33.05;16.00;;;;;;;4.25;100.00;99364.47;6275673;28;20059;-73
2021/12/11 07:00:16;;;;;;;36.97;16.20;;;;;;;4.35;100.00;99378.66;6292558;28;20215;-73
2021/12/11 07:03:17;;;;;;;42.83;17.35;;;;;;;4.41;100.00;99375.78;6259082;28;20052;-73
2021/12/11 07:06:19;;;;;;;37.03;16.77;;;;;;;4.38;100.00;99383.66;6309256;28;20052;-73
2021/12/11 07:09:23;;;;;;;41.75;16.75;;;;;;;4.23;100.00;99397.28;6302298;28;20064;-73
2021/12/11 07:12:24;;;;;;;36.47;15.82;;;;;;;4.31;100.00;99392.63;6322953;28;20404;-73
2021/12/11 07:15:26;;;;;;;43.35;16.45;;;;;;;4.35;100.00;99398.47;6323408;28;20113;-73
2021/12/11 07:18:27;;;;;;;41.20;16.90;;;;;;;4.48;100.00;99407.31;6324726;28;20039;-73
2021/12/11 07:21:28;;;;;;;44.20;17.73;;;;;;;4.44;100.00;99411.78;6324637;28;20044;-73
2021/12/11 07:24:43;;;;;;;39.13;17.13;;;;;;;4.46;100.00;99421.22;6306647;28;20130;-73
2021/12/11 07:27:45;;;;;;;35.40;16.02;;;;;;;4.55;100.00;99432.00;6324407;28;20412;-73
2021/12/11 07:30:49;;;;;;;35.80;16.77;;;;;;;4.52;100.00;99437.28;6306340;28;20052;-73
2021/12/11 07:33:52;;;;;;;38.50;16.17;;;;;;;4.50;100.00;99436.50;6324332;28;20347;-73
2021/12/11 07:36:53;;;;;;;41.40;17.00;;;;;;;4.49;100.00;99432.28;6324267;28;20044;-73
2021/12/11 07:39:54;;;;;;;40.42;17.63;;;;;;;4.47;100.00;99444.41;6316184;28;20040;-73
2021/12/11 07:42:56;;;;;;;47.63;18.50;;;;;;;4.72;100.00;99451.88;6302351;28;20037;-73
2021/12/11 07:46:00;;;;;;;35.90;17.60;;;;;;;4.66;100.00;99449.56;6298076;28;20378;-73
2021/12/11 07:49:03;;;;;;;33.13;15.98;;;;;;;4.74;100.00;99456.97;6298934;28;20048;-73
2021/12/11 07:52:05;;;;;;;36.10;15.65;;;;;;;4.80;100.00;99454.13;6297834;28;20091;-73
2021/12/11 07:55:06;;;;;;;30.27;14.65;;;;;;;4.70;100.00;99452.88;6297495;28;20447;-73
2021/12/11 07:58:09;;;;;;;36.85;18.58;;;;;;;4.80;100.00;99460.13;6299037;28;20032;-73
2021/12/11 08:01:10;;;;;;;35.75;16.25;;;;;;;4.91;100.00;99458.78;6310047;28;20044;-73
2021/12/11 08:04:12;;;;;;;34.85;15.68;;;;;;;4.94;100.00;99450.84;6307478;28;20063;-73
2021/12/11 08:07:13;;;;;;;39.05;18.95;;;;;;;4.90;100.00;99449.31;6298583;28;20040;-73
2021/12/11 08:10:18;;;;;;;34.63;15.30;;;;;;;4.61;100.00;99460.13;6280747;28;20040;-73
2021/12/11 08:13:19;;;;;;;35.15;15.63;;;;;;;4.44;100.00;99460.03;6298469;28;20127;-73
2021/12/11 08:16:26;;;;;;;34.67;15.23;;;;;;;4.57;100.00;99474.09;6298273;28;20412;-73
2021/12/11 08:19:28;;;;;;;34.83;15.00;;;;;;;4.66;100.00;99474.59;6298423;28;20036;-73
2021/12/11 08:22:28;;;;;;;31.05;14.18;;;;;;;4.59;100.00;99474.88;6296122;28;20040;-73
2021/12/11 08:25:31;;;;;;;36.28;14.88;;;;;;;4.65;100.00;99473.72;6279834;28;20528;-73
2021/12/11 08:28:32;;;;;;;35.45;16.92;;;;;;;4.55;100.00;99482.81;6298000;28;20365;-72
2021/12/11 08:31:33;;;;;;;32.55;15.32;;;;;;;4.60;100.00;99480.88;6297803;28;20516;-73
2021/12/11 08:34:35;;;;;;;38.33;17.38;;;;;;;4.47;100.00;99483.16;6296660;28;20040;-73
2021/12/11 08:37:38;;;;;;;46.92;19.35;;;;;;;4.39;100.00;99486.09;6297803;28;20044;-73
2021/12/11 08:40:44;;;;;;;40.15;14.88;;;;;;;4.50;100.00;99488.19;6296569;28;20126;-73
2021/12/11 08:43:52;;;;;;;51.60;18.63;;;;;;;4.47;100.00;99488.34;6297735;28;20436;-73
2021/12/11 08:47:01;;;;;;;52.13;19.52;;;;;;;4.57;100.00;99492.19;6296272;28;20044;-73
2021/12/11 08:50:04;;;;;;;41.92;14.23;;;;;;;4.24;100.00;99492.78;6296311;28;20513;-73
2021/12/11 08:53:05;;;;;;;71.55;20.67;;;;;;;4.28;100.00;99490.03;6297487;28;20044;-74
2021/12/11 08:56:08;;;;;;;45.85;16.58;;;;;;;4.30;100.00;99496.81;6296417;28;20047;-74
2021/12/11 08:59:19;;;;;;;51.22;17.25;;;;;;;4.40;100.00;99490.34;6297278;28;20484;-73
2021/12/11 09:02:45;;;;;;;44.55;15.70;;;;;;;4.43;100.00;99508.28;6296101;28;21192;-74
2021/12/11 09:06:00;;;;;;;37.08;15.02;;;;;;;4.37;100.00;99508.56;6295752;28;20040;-74
2021/12/11 09:09:27;;;;;;;47.67;18.13;;;;;;;4.37;100.00;99508.56;6296971;28;20441;-74
2021/12/11 09:12:39;;;;;;;48.38;16.70;;;;;;;4.34;100.00;99508.69;6289928;28;20056;-74
2021/12/11 09:15:50;;;;;;;51.45;17.10;;;;;;;4.34;100.00;99503.53;6296894;28;20127;-74
2021/12/11 09:18:54;;;;;;;43.45;16.38;;;;;;;4.38;100.00;99506.81;6295614;28;20172;-74
2021/12/11 09:22:35;;;;;;;52.20;17.42;;;;;;;4.22;100.00;99509.22;6296885;28;20407;-74
2021/12/11 09:25:50;;;;;;;48.53;16.40;;;;;;;4.32;100.00;99500.16;6296028;28;20071;-74
2021/12/11 09:28:59;;;;;;;54.28;17.42;;;;;;;4.52;100.00;99493.28;6295499;28;20087;-74
2021/12/11 09:32:18;;;;;;;46.50;16.48;;;;;;;4.56;100.00;99495.66;6296575;28;20068;-73
2021/12/11 09:35:22;;;;;;;36.50;15.30;;;;;;;4.46;100.00;99496.97;6294853;28;20055;-73
2021/12/11 09:38:40;;;;;;;36.13;13.63;;;;;;;4.34;100.00;99500.09;6296452;28;20044;-74
2021/12/11 09:41:40;;;;;;;48.95;17.73;;;;;;;4.41;100.00;99493.78;6320803;28;20055;-74
2021/12/11 09:44:54;;;;;;;49.15;18.30;;;;;;;4.48;100.00;99497.75;6321443;28;20040;-74
2021/12/11 09:48:00;;;;;;;42.10;18.25;;;;;;;4.61;100.00;99503.19;6319882;28;20139;-74
2021/12/11 09:51:04;;;;;;;44.97;17.33;;;;;;;4.68;100.00;99504.63;6300121;28;20040;-74
2021/12/11 09:54:14;;;;;;;47.13;18.85;;;;;;;4.86;100.00;99505.53;6295020;28;20037;-73
2021/12/11 09:57:20;;;;;;;38.90;17.58;;;;;;;4.56;100.00;99500.00;6298306;28;20186;-73
2021/12/11 10:00:36;;;;;;;62.75;27.63;;;;;;;4.77;100.00;99504.19;6294848;28;20086;-74
2021/12/11 10:03:45;;;;;;;46.55;20.58;;;;;;;4.73;100.00;99505.22;6329016;28;20488;-73
2021/12/11 10:07:24;;;;;;;46.30;18.35;;;;;;;4.60;100.00;99501.53;6300244;28;20040;-74
2021/12/11 10:10:24;;;;;;;52.63;21.58;;;;;;;4.68;100.00;99516.69;6320865;28;20067;-74
2021/12/11 10:13:26;;;;;;;43.05;17.27;;;;;;;4.72;100.00;99513.91;6305383;28;20064;-73
2021/12/11 10:16:35;;;;;;;54.05;18.85;;;;;;;4.75;100.00;99516.34;6307401;28;20040;-74
2021/12/11 10:19:39;;;;;;;31.67;12.88;;;;;;;4.64;100.00;99513.41;6294926;28;20037;-74
2021/12/11 10:22:42;;;;;;;40.35;16.30;;;;;;;4.61;100.00;99518.69;6294712;28;20040;-74
2021/12/11 10:25:44;;;;;;;29.45;13.02;;;;;;;4.44;100.00;99517.72;6295884;28;20071;-74
2021/12/11 10:28:51;;;;;;;34.22;13.95;;;;;;;4.53;100.00;99513.03;6261613;28;20068;-74
2021/12/11 10:31:56;;;;;;;40.33;14.95;;;;;;;4.64;100.00;99521.16;6295618;28;20102;-74
2021/12/11 10:35:03;;;;;;;34.60;15.95;;;;;;;4.67;100.00;99515.00;6295839;28;20044;-73
2021/12/11 10:38:06;;;;;;;41.88;16.95;;;;;;;4.55;100.00;99517.25;6294813;28;20138;-73
2021/12/11 10:41:10;;;;;;;31.30;14.13;;;;;;;4.39;100.00;99524.84;6294580;28;20052;-73
2021/12/11 10:44:18;;;;;;;35.08;13.95;;;;;;;4.39;100.00;99524.00;6295578;28;20048;-73
2021/12/11 10:47:38;;;;;;;39.97;14.43;;;;;;;4.51;100.00;99522.59;6298362;28;20037;-74
2021/12/11 10:50:50;;;;;;;41.25;15.95;;;;;;;4.71;100.00;99519.13;6300352;28;20040;-74
2021/12/11 10:53:52;;;;;;;45.53;16.92;;;;;;;4.75;100.00;99520.66;6300428;28;20040;-73
2021/12/11 10:56:54;;;;;;;43.13;16.45;;;;;;;4.69;100.00;99516.63;6300176;28;20045;-73
2021/12/11 10:59:58;;;;;;;40.35;14.13;;;;;;;4.55;100.00;99511.22;6300244;28;20068;-73
2021/12/11 11:02:59;;;;;;;42.28;14.52;;;;;;;4.56;100.00;99507.75;6300025;28;20080;-73
2021/12/11 11:06:01;;;;;;;42.65;15.10;;;;;;;4.41;100.00;99502.34;6298721;28;20052;-73
2021/12/11 11:09:04;;;;;;;42.13;17.73;;;;;;;4.61;100.00;99491.13;6298685;28;20045;-74
2021/12/11 11:12:09;;;;;;;51.10;18.23;;;;;;;4.66;100.00;99488.34;6298838;28;20040;-74
2021/12/11 11:15:12;;;;;;;40.40;14.52;;;;;;;4.69;100.00;99495.09;6299792;28;20048;-74
2021/12/11 11:18:14;;;;;;;;;;;;;;;4.61;100.00;99491.13;6300173;28;20500;-74
2021/12/11 11:21:32;;;;;;;49.42;19.83;;;;;;;4.70;100.00;99487.28;6299681;28;19920;-73
2021/12/11 11:24:37;;;;;;;76.07;24.20;;;;;;;4.72;100.00;99488.06;6299846;28;20094;-73
2021/12/11 11:27:39;;;;;;;42.08;18.25;;;;;;;4.75;100.00;99481.91;6299351;28;20037;-74
2021/12/11 11:30:42;;;;;;;;;;;;;;;4.74;100.00;99475.91;6298481;28;20540;-73
2021/12/11 11:33:44;;;;;;;45.30;16.13;;;;;;;4.80;100.00;99467.88;6298153;28;19920;-74
2021/12/11 11:36:46;;;;;;;36.33;13.60;;;;;;;4.75;100.00;99468.97;6299338;28;20051;-73
2021/12/11 11:39:48;;;;;;;42.85;15.80;;;;;;;5.01;100.00;99462.59;6299257;28;20037;-74
2021/12/11 11:42:49;;;;;;;34.17;14.90;;;;;;;4.85;100.00;99463.31;6298124;28;20044;-73
2021/12/11 11:45:52;;;;;;;27.55;12.02;;;;;;;4.69;100.00;99458.94;6299117;28;20044;-73
2021/12/11 11:49:00;;;;;;;37.40;13.95;;;;;;;4.55;100.00;99451.81;6299012;28;20294;-73
2021/12/11 11:52:08;;;;;;;39.15;14.85;;;;;;;4.71;100.00;99444.19;6299112;28;20052;-73
2021/12/11 11:55:13;;;;;;;36.97;14.00;;;;;;;4.68;100.00;99440.00;6298877;28;20074;-73
2021/12/11 11:58:16;;;;;;;36.72;14.90;;;;;;;4.78;100.00;99448.19;6298547;28;20040;-73
2021/12/11 12:01:28;;;;;;;35.08;13.98;;;;;;;4.84;100.00;99437.53;6297560;28;20051;-73
2021/12/11 12:04:32;;;;;;;38.17;16.10;;;;;;;4.93;100.00;99441.44;6298781;28;20040;-74
2021/12/11 12:07:33;;;;;;;33.97;14.27;;;;;;;4.85;100.00;99455.56;6297121;28;20056;-73
2021/12/11 12:10:35;;;;;;;45.70;19.83;;;;;;;4.85;100.00;99470.22;6298615;28;20040;-74
2021/12/11 12:13:36;;;;;;;39.05;16.45;;;;;;;4.91;100.00;99484.63;6281648;28;20094;-73
2021/12/11 12:16:41;;;;;;;36.58;15.05;;;;;;;4.80;100.00;99485.13;6309806;28;20048;-73
2021/12/11 12:19:42;;;;;;;48.97;22.65;;;;;;;4.97;100.00;99487.75;6301727;28;20412;-73
2021/12/11 12:22:47;;;;;;;38.15;15.23;;;;;;;4.98;100.00;99486.00;6297139;28;20040;-73
2021/12/11 12:25:51;;;;;;;38.65;16.52;;;;;;;4.78;100.00;99495.53;6302262;28;20036;-73
2021/12/11 12:28:54;;;;;;;42.55;18.60;;;;;;;4.87;100.00;99502.00;6323235;28;20051;-73
2021/12/11 12:32:22;;;;;;;40.83;16.55;;;;;;;4.66;100.00;99514.19;6322986;28;20101;-73
2021/12/11 12:35:27;;;;;;;42.83;17.10;;;;;;;4.83;100.00;99526.34;6323072;28;20123;-73
2021/12/11 12:38:30;;;;;;;40.88;16.20;;;;;;;4.75;100.00;99537.00;6337305;28;20062;-73
2021/12/11 12:41:33;;;;;;;;;;;;;;;4.86;100.00;99541.72;6302732;28;20044;-73
2021/12/11 12:44:34;;;;;;;;;;;;;;;4.89;100.00;99532.97;6323259;28;20005;-73
2021/12/11 12:47:42;;;;;;;38.55;13.63;;;;;;;4.65;100.00;99525.41;6322697;28;20018;-73
2021/12/11 12:50:53;;;;;;;40.65;15.70;;;;;;;4.66;100.00;99528.84;6322690;28;20044;-73
2021/12/11 12:53:59;;;;;;;42.67;16.08;;;;;;;4.65;100.00;99530.59;6322713;28;20044;-73
2021/12/11 12:57:12;;;;;;;45.17;16.98;;;;;;;4.51;100.00;99535.53;6282196;28;20142;-73
2021/12/11 13:00:20;;;;;;;;;;;;;;;4.61;100.00;99531.63;6297804;28;20154;-74
2021/12/11 13:03:27;;;;;;;30.38;13.00;;;;;;;4.48;100.00;99539.09;6309793;28;19920;-73
2021/12/11 13:06:32;;;;;;;43.30;16.95;;;;;;;4.58;100.00;99531.78;6321450;28;20132;-73
2021/12/11 13:09:42;;;;;;;49.25;21.27;;;;;;;4.60;100.00;99538.53;6320200;28;20044;-73
2021/12/11 13:12:47;;;;;;;54.35;21.50;;;;;;;4.77;100.00;99531.78;6322125;28;20063;-73
2021/12/11 13:15:53;;;;;;;58.83;27.50;;;;;;;4.55;100.00;99522.44;6320820;28;20101;-73
2021/12/11 13:19:04;;;;;;;40.65;16.92;;;;;;;4.57;100.00;99514.56;6321891;28;20036;-73
2021/12/11 13:22:29;;;;;;;44.80;20.95;;;;;;;4.60;100.00;99514.47;6321726;28;20066;-73
2021/12/11 13:25:40;;;;;;;49.67;19.67;;;;;;;4.54;100.00;99514.72;6322065;28;20048;-73
2021/12/11 13:28:48;;;;;;;47.45;19.48;;;;;;;4.46;100.00;99515.06;6321612;28;20101;-73
2021/12/11 13:32:00;;;;;;;47.47;19.50;;;;;;;4.35;100.00;99505.22;6321424;28;20056;-73
2021/12/11 13:35:10;;;;;;;56.15;21.80;;;;;;;4.55;100.00;99506.91;6321576;28;20063;-73
2021/12/11 13:38:14;;;;;;;40.30;16.27;;;;;;;4.46;100.00;99515.06;6320368;28;20071;-73
2021/12/11 13:41:22;;;;;;;35.67;16.05;;;;;;;4.43;100.00;99528.13;6320196;28;20040;-73
2021/12/11 13:44:22;;;;;;;47.30;18.90;;;;;;;4.52;100.00;99537.22;6320237;28;20449;-73
2021/12/11 13:47:28;;;;;;;44.97;20.77;;;;;;;4.59;100.00;99529.13;6321212;28;20040;-73
2021/12/11 13:50:43;;;;;;;38.70;16.85;;;;;;;4.67;100.00;99533.09;6320066;28;20700;-73
2021/12/11 13:53:45;;;;;;;28.08;12.73;;;;;;;4.47;100.00;99541.72;6321230;28;20520;-73
2021/12/11 13:57:00;;;;;;;37.25;16.13;;;;;;;4.41;100.00;99524.78;6320089;28;20044;-72
2021/12/11 14:00:05;;;;;;;35.65;16.55;;;;;;;4.54;100.00;99518.16;6321539;28;20036;-73
2021/12/11 14:03:06;;;;;;;32.33;15.40;;;;;;;4.57;100.00;99518.03;6320020;28;20093;-73
2021/12/11 14:06:09;;;;;;;37.63;15.20;;;;;;;4.52;100.00;99538.03;6320956;28;20392;-73
2021/12/11 14:09:10;;;;;;;35.70;15.70;;;;;;;4.55;100.00;99540.50;6320980;28;20048;-73
2021/12/11 14:12:12;;;;;;;38.78;17.25;;;;;;;4.54;100.00;99540.56;6319720;28;20036;-72
2021/12/11 14:15:13;;;;;;;38.63;16.87;;;;;;;4.53;100.00;99551.78;6321094;28;20055;-72
2021/12/11 14:18:16;;;;;;;36.83;16.55;;;;;;;4.58;100.00;99542.94;6320839;28;20072;-73
2021/12/11 14:21:18;;;;;;;31.10;13.30;;;;;;;4.41;100.00;99550.63;6322532;28;20040;-73
2021/12/11 14:24:19;;;;;;;39.33;15.95;;;;;;;4.38;100.00;99556.72;6308139;28;20040;-73
2021/12/11 14:27:20;;;;;;;43.70;20.55;;;;;;;4.49;100.00;99560.59;6308170;28;20040;-72
2021/12/11 14:30:21;;;;;;;51.55;21.65;;;;;;;4.56;100.00;99562.00;6325857;28;20558;-73
2021/12/11 14:33:24;;;;;;;48.08;19.63;;;;;;;4.47;100.00;99557.22;6307806;28;20047;-72